createdAt,value
2023-05-09T00:01:31.752Z,8.21
2023-05-09T00:04:35.507Z,8.16
2023-05-09T00:07:38.416Z,8.03
2023-05-09T00:10:41.794Z,7.96
2023-05-09T00:13:44.608Z,7.92
2023-05-09T00:16:47.664Z,7.89
2023-05-09T00:19:51.222Z,7.85
2023-05-09T00:22:55.188Z,7.84
2023-05-09T00:25:59.156Z,7.87
2023-05-09T00:29:01.992Z,7.80
2023-05-09T00:32:05.041Z,7.83
2023-05-09T00:35:09.079Z,7.83
2023-05-09T00:38:12.107Z,7.74
2023-05-09T00:41:15.591Z,7.71
2023-05-09T00:44:18.457Z,7.63
2023-05-09T00:47:23.900Z,7.65
2023-05-09T00:50:26.553Z,7.61
2023-05-09T00:53:29.488Z,7.57
2023-05-09T00:56:32.197Z,7.50
2023-05-09T00:59:36.105Z,7.53
2023-05-09T01:02:43.677Z,7.50
2023-05-09T01:05:58.117Z,7.40
2023-05-09T01:09:15.578Z,7.33
2023-05-09T01:12:30.716Z,7.29
2023-05-09T01:15:39.373Z,7.27
2023-05-09T01:18:51.376Z,7.35
2023-05-09T01:21:54.751Z,7.33
2023-05-09T01:25:10.384Z,7.28
2023-05-09T01:28:37.021Z,7.25
2023-05-09T01:31:41.921Z,7.06
2023-05-09T01:34:45.900Z,7.10
2023-05-09T01:37:50.595Z,7.05
2023-05-09T01:40:55.386Z,7.04
2023-05-09T01:43:59.627Z,6.95
2023-05-09T01:47:03.288Z,6.97
2023-05-09T01:50:07.258Z,6.96
2023-05-09T01:53:11.326Z,6.94
2023-05-09T01:56:15.207Z,6.84
2023-05-09T01:59:18.503Z,6.82
2023-05-09T02:02:21.770Z,6.83
2023-05-09T02:05:29.159Z,6.84
2023-05-09T02:08:32.871Z,6.77
2023-05-09T02:11:36.442Z,6.77
2023-05-09T02:14:39.043Z,6.75
2023-05-09T02:17:42.432Z,6.70
2023-05-09T02:20:45.883Z,6.69
2023-05-09T02:23:48.676Z,6.65
2023-05-09T02:26:51.515Z,6.63
2023-05-09T02:29:57.633Z,6.65
2023-05-09T02:33:04.041Z,6.48
2023-05-09T02:36:08.476Z,6.63
2023-05-09T02:39:11.439Z,6.60
2023-05-09T02:42:21.972Z,6.60
2023-05-09T02:45:25.757Z,6.63
2023-05-09T02:48:28.674Z,6.59
2023-05-09T02:51:31.636Z,6.59
2023-05-09T02:54:34.495Z,6.62
2023-05-09T02:57:37.652Z,6.58
2023-05-09T03:00:40.375Z,6.61
2023-05-09T03:03:44.121Z,6.63
2023-05-09T03:06:47.227Z,6.72
2023-05-09T03:09:50.333Z,6.71
2023-05-09T03:12:52.979Z,6.73
2023-05-09T03:15:55.872Z,6.75
2023-05-09T03:18:58.426Z,6.73
2023-05-09T03:22:01.721Z,6.76
2023-05-09T03:25:06.446Z,6.83
2023-05-09T03:28:09.473Z,6.84
2023-05-09T03:31:12.437Z,6.83
2023-05-09T03:34:15.525Z,6.79
2023-05-09T03:37:18.812Z,6.76
2023-05-09T03:40:22.086Z,6.71
2023-05-09T03:43:25.599Z,6.73
2023-05-09T03:46:28.502Z,6.71
2023-05-09T03:49:31.375Z,6.82
2023-05-09T03:52:34.439Z,6.79
2023-05-09T03:55:37.546Z,6.84
2023-05-09T03:58:40.928Z,6.84
2023-05-09T04:01:43.846Z,6.84
2023-05-09T04:04:47.445Z,6.86
2023-05-09T04:07:52.049Z,6.94
2023-05-09T04:10:55.512Z,6.96
2023-05-09T04:13:59.666Z,7.05
2023-05-09T04:17:03.854Z,7.13
2023-05-09T04:20:08.273Z,7.25
2023-05-09T04:23:11.340Z,7.29
2023-05-09T04:26:14.694Z,7.39
2023-05-09T04:29:18.173Z,7.49
2023-05-09T04:32:23.375Z,7.54
2023-05-09T04:35:27.167Z,8.93
2023-05-09T04:38:30.006Z,8.42
2023-05-09T04:41:33.234Z,8.30
2023-05-09T04:44:36.118Z,8.26
2023-05-09T04:47:39.686Z,8.23
2023-05-09T04:50:42.329Z,8.27
2023-05-09T04:53:45.371Z,8.28
2023-05-09T04:56:50.153Z,8.36
2023-05-09T04:59:53.644Z,8.42
2023-05-09T05:02:56.387Z,9.61
2023-05-09T05:06:00.362Z,9.15
2023-05-09T05:09:03.717Z,9.05
2023-05-09T05:12:09.600Z,8.99
2023-05-09T05:15:13.790Z,9.03
2023-05-09T05:18:17.884Z,8.98
2023-05-09T05:21:20.531Z,9.11
2023-05-09T05:24:24.218Z,9.17
2023-05-09T05:27:26.976Z,9.24
2023-05-09T05:30:32.089Z,9.31
2023-05-09T05:33:36.914Z,9.41
2023-05-09T05:36:40.398Z,9.45
2023-05-09T05:39:43.171Z,9.58
2023-05-09T05:42:46.700Z,9.71
2023-05-09T05:45:49.684Z,9.75
2023-05-09T05:48:52.859Z,9.85
2023-05-09T05:51:55.462Z,9.97
2023-05-09T05:54:58.503Z,10.15
2023-05-09T05:58:01.123Z,10.16
2023-05-09T06:01:04.242Z,10.38
2023-05-09T06:04:07.565Z,10.57
2023-05-09T06:07:11.049Z,10.67
2023-05-09T06:10:15.981Z,10.78
2023-05-09T06:13:19.700Z,10.90
2023-05-09T06:16:23.602Z,11.10
2023-05-09T06:19:26.241Z,11.15
2023-05-09T06:22:29.103Z,11.31
2023-05-09T06:25:31.674Z,11.43
2023-05-09T06:28:34.564Z,11.59
2023-05-09T06:31:39.028Z,11.71
2023-05-09T06:34:42.190Z,11.86
2023-05-09T06:37:46.517Z,11.99
2023-05-09T06:40:50.554Z,12.08
2023-05-09T06:43:53.289Z,12.25
2023-05-09T06:46:56.116Z,12.31
2023-05-09T06:49:58.595Z,12.41
2023-05-09T06:53:01.343Z,12.45
2023-05-09T06:56:04.469Z,12.69
2023-05-09T06:59:07.876Z,12.95
2023-05-09T07:02:10.877Z,13.00
2023-05-09T07:05:14.046Z,13.34
2023-05-09T07:08:17.121Z,13.37
2023-05-09T07:11:20.019Z,13.57
2023-05-09T07:14:22.753Z,13.65
2023-05-09T07:17:25.793Z,13.61
2023-05-09T07:20:28.444Z,13.77
2023-05-09T07:23:31.528Z,14.20
2023-05-09T07:26:35.713Z,14.42
2023-05-09T07:29:38.839Z,14.46
2023-05-09T07:32:41.398Z,14.47
2023-05-09T07:35:44.308Z,14.73
2023-05-09T07:38:48.042Z,14.84
2023-05-09T07:41:50.902Z,14.98
2023-05-09T07:44:53.524Z,15.08
2023-05-09T07:47:56.352Z,15.32
2023-05-09T07:50:59.005Z,15.46
2023-05-09T07:54:01.828Z,15.83
2023-05-09T07:57:04.513Z,16.01
2023-05-09T08:00:08.878Z,16.01
2023-05-09T08:03:16.156Z,16.15
2023-05-09T08:06:19.352Z,16.32
2023-05-09T08:09:22.048Z,16.52
2023-05-09T08:12:24.982Z,16.41
2023-05-09T08:15:27.620Z,16.84
2023-05-09T08:18:30.501Z,17.07
2023-05-09T08:21:33.213Z,17.05
2023-05-09T08:24:36.115Z,17.14
2023-05-09T08:27:38.647Z,17.08
2023-05-09T08:30:41.630Z,17.23
2023-05-09T08:33:44.181Z,17.36
2023-05-09T08:36:47.110Z,17.64
2023-05-09T08:39:49.621Z,18.09
2023-05-09T08:42:52.630Z,18.41
2023-05-09T08:45:58.623Z,18.49
2023-05-09T08:49:01.626Z,17.80
2023-05-09T08:52:04.550Z,18.05
2023-05-09T08:55:07.812Z,17.90
2023-05-09T08:58:10.466Z,17.97
2023-05-09T09:01:14.325Z,18.25
2023-05-09T09:04:17.201Z,17.81
2023-05-09T09:07:20.248Z,18.09
2023-05-09T09:10:25.774Z,18.62
2023-05-09T09:13:29.328Z,18.82
2023-05-09T09:16:33.154Z,18.52
2023-05-09T09:19:37.460Z,19.14
2023-05-09T09:22:42.380Z,19.79
2023-05-09T09:25:48.409Z,19.98
2023-05-09T09:28:50.941Z,19.98
2023-05-09T09:31:55.163Z,20.11
2023-05-09T09:35:06.977Z,19.82
2023-05-09T09:38:09.871Z,20.08
2023-05-09T09:41:12.904Z,20.44
2023-05-09T09:44:18.068Z,20.51
2023-05-09T09:47:20.566Z,20.92
2023-05-09T09:50:24.842Z,21.07
2023-05-09T09:53:30.386Z,20.72
2023-05-09T09:56:45.013Z,21.03
2023-05-09T09:59:58.948Z,20.55
2023-05-09T10:03:02.103Z,19.46
2023-05-09T10:06:05.592Z,19.68
2023-05-09T10:09:08.140Z,20.19
2023-05-09T10:12:12.187Z,20.87
2023-05-09T10:15:18.716Z,20.61
2023-05-09T10:18:29.062Z,20.06
2023-05-09T10:21:33.104Z,19.26
2023-05-09T10:24:42.920Z,20.20
2023-05-09T10:27:46.779Z,20.50
2023-05-09T10:31:25.095Z,21.33
2023-05-09T10:34:29.157Z,21.44
2023-05-09T10:37:33.409Z,21.32
2023-05-09T10:40:36.393Z,21.04
2023-05-09T10:43:39.586Z,21.32
2023-05-09T10:46:42.462Z,20.45
2023-05-09T10:49:45.635Z,21.19
2023-05-09T10:53:14.237Z,22.09
2023-05-09T10:56:33.811Z,21.58
2023-05-09T10:59:36.368Z,22.64
2023-05-09T11:02:39.233Z,21.91
2023-05-09T11:05:42.176Z,23.00
2023-05-09T11:08:45.047Z,22.72
2023-05-09T11:11:58.474Z,21.95
2023-05-09T11:15:08.300Z,21.90
2023-05-09T11:18:11.003Z,21.29
2023-05-09T11:21:14.606Z,21.65
2023-05-09T11:24:17.678Z,22.32
2023-05-09T11:27:25.692Z,22.40
2023-05-09T11:30:43.909Z,21.39
2023-05-09T11:33:54.957Z,21.43
2023-05-09T11:37:09.759Z,21.06
2023-05-09T11:40:14.518Z,20.03
2023-05-09T11:43:18.577Z,19.69
2023-05-09T11:46:21.494Z,21.04
2023-05-09T11:49:24.142Z,20.22
2023-05-09T11:52:27.079Z,20.20
2023-05-09T11:55:32.765Z,21.15
2023-05-09T11:58:38.709Z,21.16
2023-05-09T12:01:41.393Z,20.23
2023-05-09T12:04:44.422Z,19.46
2023-05-09T12:07:47.784Z,20.27
2023-05-09T12:10:50.876Z,20.89
2023-05-09T12:13:53.434Z,20.53
2023-05-09T12:16:56.434Z,19.69
2023-05-09T12:20:00.580Z,19.81
2023-05-09T12:23:03.629Z,19.58
2023-05-09T12:26:06.852Z,19.83
2023-05-09T12:29:09.892Z,20.37
2023-05-09T12:32:14.342Z,19.71
2023-05-09T12:35:17.364Z,19.35
2023-05-09T12:38:23.378Z,18.87
2023-05-09T12:44:32.685Z,21.22
2023-05-09T12:47:35.549Z,21.28
2023-05-09T12:50:38.201Z,22.36
2023-05-09T12:53:41.668Z,21.56
2023-05-09T12:56:44.712Z,20.59
2023-05-09T12:59:47.569Z,20.33
2023-05-09T13:02:51.021Z,19.98
2023-05-09T13:05:56.181Z,19.76
2023-05-09T13:09:01.197Z,19.74
2023-05-09T13:12:04.339Z,19.77
2023-05-09T13:15:07.679Z,19.80
2023-05-09T13:18:11.438Z,19.37
2023-05-09T13:21:14.080Z,19.52
2023-05-09T13:24:16.870Z,20.09
2023-05-09T13:27:19.388Z,20.38
2023-05-09T13:30:22.408Z,21.20
2023-05-09T13:33:26.641Z,21.19
2023-05-09T13:36:29.859Z,20.47
2023-05-09T13:39:32.475Z,19.96
2023-05-09T13:42:35.427Z,19.59
2023-05-09T13:45:37.953Z,19.15
2023-05-09T13:48:41.873Z,19.34
2023-05-09T13:51:44.739Z,19.20
2023-05-09T13:54:47.678Z,19.49
2023-05-09T13:57:50.323Z,19.86
2023-05-09T14:00:53.277Z,19.81
2023-05-09T14:03:56.264Z,19.48
2023-05-09T14:06:59.956Z,19.20
2023-05-09T14:13:11.160Z,18.63
2023-05-09T14:16:14.615Z,18.94
2023-05-09T14:19:17.415Z,18.52
2023-05-09T14:22:20.677Z,18.36
2023-05-09T14:25:23.182Z,18.21
2023-05-09T14:28:25.959Z,18.04
2023-05-09T14:31:29.197Z,18.24
2023-05-09T14:34:31.996Z,18.56
2023-05-09T14:37:34.478Z,18.85
2023-05-09T14:40:37.334Z,19.05
2023-05-09T14:43:39.829Z,19.28
2023-05-09T14:46:42.926Z,19.41
2023-05-09T14:49:45.618Z,19.48
2023-05-09T14:52:49.637Z,19.60
2023-05-09T14:55:52.293Z,19.35
2023-05-09T14:58:55.093Z,19.04
2023-05-09T15:01:57.630Z,18.93
2023-05-09T15:05:00.668Z,19.10
2023-05-09T15:08:03.800Z,19.03
2023-05-09T15:11:07.979Z,19.05
2023-05-09T15:14:10.515Z,18.82
2023-05-09T15:17:13.428Z,18.30
2023-05-09T15:20:19.871Z,18.12
2023-05-09T15:23:23.063Z,17.93
2023-05-09T15:26:26.166Z,17.80
2023-05-09T15:29:28.980Z,17.80
2023-05-09T15:32:31.659Z,18.02
2023-05-09T15:35:34.557Z,18.08
2023-05-09T15:38:37.121Z,18.22
2023-05-09T15:41:40.102Z,18.26
2023-05-09T15:44:43.019Z,18.15
2023-05-09T15:47:45.906Z,18.00
2023-05-09T15:50:49.021Z,17.81
2023-05-09T15:53:52.060Z,17.54
2023-05-09T15:56:54.656Z,17.36
2023-05-09T15:59:57.554Z,17.37
2023-05-09T16:03:00.136Z,17.34
2023-05-09T16:06:03.424Z,17.32
2023-05-09T16:09:06.844Z,17.21
2023-05-09T16:12:09.744Z,17.22
2023-05-09T16:15:12.472Z,17.30
2023-05-09T16:18:15.351Z,17.49
2023-05-09T16:21:22.461Z,17.42
2023-05-09T16:24:25.360Z,17.27
2023-05-09T16:27:27.873Z,17.16
2023-05-09T16:30:30.700Z,17.01
2023-05-09T16:33:33.245Z,16.89
2023-05-09T16:36:37.680Z,16.81
2023-05-09T16:39:40.169Z,16.73
2023-05-09T16:42:43.158Z,16.57
2023-05-09T16:45:48.011Z,16.50
2023-05-09T16:48:52.239Z,16.45
2023-05-09T16:51:54.967Z,16.38
2023-05-09T16:54:59.398Z,16.35
2023-05-09T16:58:02.280Z,16.24
2023-05-09T17:01:05.623Z,16.15
2023-05-09T17:04:08.503Z,16.10
2023-05-09T17:07:12.766Z,16.01
2023-05-09T17:10:15.608Z,15.83
2023-05-09T17:13:18.984Z,15.86
2023-05-09T17:16:21.730Z,15.85
2023-05-09T17:19:24.594Z,15.75
2023-05-09T17:22:27.868Z,15.66
2023-05-09T17:25:30.818Z,15.58
2023-05-09T17:28:33.597Z,15.44
2023-05-09T17:31:36.432Z,15.45
2023-05-09T17:34:39.386Z,15.36
2023-05-09T17:37:42.197Z,15.27
2023-05-09T17:40:44.969Z,15.24
2023-05-09T17:43:47.831Z,15.09
2023-05-09T17:46:50.792Z,15.11
2023-05-09T17:49:53.706Z,14.90
2023-05-09T17:52:57.035Z,14.95
2023-05-09T17:56:01.165Z,14.83
2023-05-09T17:59:03.740Z,14.78
2023-05-09T18:02:07.786Z,14.77
2023-05-09T18:05:11.419Z,14.78
2023-05-09T18:08:14.168Z,14.63
2023-05-09T18:11:17.034Z,14.59
2023-05-09T18:14:19.682Z,14.50
2023-05-09T18:17:22.593Z,14.43
2023-05-09T18:20:26.090Z,14.32
2023-05-09T18:23:29.009Z,14.19
2023-05-09T18:26:33.719Z,13.96
2023-05-09T18:29:36.786Z,14.01
2023-05-09T18:32:39.401Z,13.96
2023-05-09T18:35:42.714Z,14.01
2023-05-09T18:38:45.445Z,14.01
2023-05-09T18:41:48.492Z,13.94
2023-05-09T18:44:51.208Z,13.89
2023-05-09T18:47:54.223Z,13.70
2023-05-09T18:50:57.372Z,13.67
2023-05-09T18:54:00.279Z,13.66
2023-05-09T18:57:03.363Z,13.54
2023-05-09T19:00:07.674Z,13.55
2023-05-09T19:03:10.302Z,13.53
2023-05-09T19:06:14.448Z,13.54
2023-05-09T19:09:17.222Z,13.46
2023-05-09T19:12:20.062Z,13.42
2023-05-09T19:15:23.415Z,13.37
2023-05-09T19:18:26.872Z,13.32
2023-05-09T19:21:29.857Z,13.33
2023-05-09T19:24:32.991Z,13.27
2023-05-09T19:27:35.625Z,13.22
2023-05-09T19:30:38.809Z,13.20
2023-05-09T19:33:45.634Z,13.08
2023-05-09T19:36:49.182Z,13.00
2023-05-09T19:39:51.983Z,12.90
2023-05-09T19:42:54.974Z,12.83
2023-05-09T19:45:58.519Z,12.82
2023-05-09T19:49:01.894Z,12.76
2023-05-09T19:52:04.633Z,12.74
2023-05-09T19:55:07.907Z,12.70
2023-05-09T19:58:10.813Z,12.58
2023-05-09T20:01:14.042Z,12.55
2023-05-09T20:04:21.621Z,12.55
2023-05-09T20:07:24.376Z,12.50
2023-05-09T20:10:29.317Z,12.47
2023-05-09T20:13:31.935Z,12.46
2023-05-09T20:16:35.167Z,12.47
2023-05-09T20:19:38.092Z,12.39
2023-05-09T20:22:41.026Z,12.30
2023-05-09T20:25:43.767Z,12.23
2023-05-09T20:28:46.771Z,12.09
2023-05-09T20:31:49.473Z,12.20
2023-05-09T20:34:52.221Z,12.20
2023-05-09T20:37:55.005Z,12.17
2023-05-09T20:40:58.124Z,11.93
2023-05-09T20:44:04.090Z,12.02
2023-05-09T20:47:07.170Z,11.94
2023-05-09T20:50:10.325Z,11.87
2023-05-09T20:53:13.172Z,11.83
2023-05-09T20:56:16.334Z,11.78
2023-05-09T20:59:19.231Z,11.73
2023-05-09T21:02:22.012Z,11.73
2023-05-09T21:05:25.031Z,11.67
2023-05-09T21:08:27.523Z,11.59
2023-05-09T21:11:30.336Z,11.62
2023-05-09T21:14:32.973Z,11.63
2023-05-09T21:17:35.862Z,11.60
2023-05-09T21:20:38.589Z,11.52
2023-05-09T21:23:41.821Z,11.50
2023-05-09T21:26:44.530Z,11.49
2023-05-09T21:29:49.528Z,11.44
2023-05-09T21:32:52.179Z,11.37
2023-05-09T21:35:55.227Z,11.33
2023-05-09T21:38:58.007Z,11.22
2023-05-09T21:42:00.864Z,11.23
2023-05-09T21:45:03.827Z,11.16
2023-05-09T21:48:06.898Z,11.14
2023-05-09T21:51:09.593Z,11.16
2023-05-09T21:54:12.481Z,10.99
2023-05-09T21:57:15.046Z,10.94
2023-05-09T22:00:18.429Z,11.16
2023-05-09T22:03:21.665Z,11.16
2023-05-09T22:06:24.298Z,10.94
2023-05-09T22:09:27.197Z,11.10
2023-05-09T22:12:29.823Z,11.04
2023-05-09T22:15:32.679Z,10.98
2023-05-09T22:18:35.395Z,10.95
2023-05-09T22:21:38.287Z,10.89
2023-05-09T22:24:41.795Z,10.86
2023-05-09T22:27:44.868Z,10.86
2023-05-09T22:30:47.543Z,10.83
2023-05-09T22:33:50.673Z,10.77
2023-05-09T22:36:55.105Z,10.72
2023-05-09T22:39:58.036Z,10.69
2023-05-09T22:43:00.889Z,10.71
2023-05-09T22:46:03.901Z,10.71
2023-05-09T22:49:06.651Z,10.69
2023-05-09T22:52:10.420Z,10.62
2023-05-09T22:55:13.012Z,10.63
2023-05-09T22:58:16.204Z,10.57
2023-05-09T23:01:19.125Z,10.59
2023-05-09T23:04:22.142Z,10.51
2023-05-09T23:07:24.754Z,10.54
2023-05-09T23:10:28.086Z,10.65
2023-05-09T23:13:30.941Z,10.61
2023-05-09T23:16:33.745Z,10.55
2023-05-09T23:19:37.303Z,10.55
2023-05-09T23:22:40.254Z,10.56
2023-05-09T23:25:42.895Z,10.58
2023-05-09T23:28:46.040Z,10.41
2023-05-09T23:31:48.673Z,10.56
2023-05-09T23:34:52.122Z,10.55
2023-05-09T23:37:54.699Z,10.58
2023-05-09T23:40:58.586Z,10.62
2023-05-09T23:44:03.328Z,10.48
2023-05-09T23:47:06.437Z,10.51
2023-05-09T23:50:09.061Z,10.27
2023-05-09T23:53:12.043Z,10.40
2023-05-09T23:56:14.997Z,10.35
2023-05-09T23:59:18.071Z,10.28
